Milan, KS

1:59 PM CDT on September 18, 2014 (GMT -0500)
KanOkla | Change Station
CLOSE
Current Station
Personal Weather Station
Location: Caldwell, KS
Elevation: 1168 ft
Nearby Weather Stations

Elev 1168 ft 37.03 °N, 97.61 °W | Updated 4 minutes ago

Partly Cloudy
Partly Cloudy
87.0 °F
Feels Like 87 °F
N
9.0
Wind Variable Wind from East
Gusts 19.0 mph

Today
High -- | Low -- °F
--% Chance of Precip.
Yesterday
High -- | Low -- °F
Precip. -- in
7:15 AM 7:33 PM
Waning Crescent, 25% visible
Pressure 29.94 in
Visibility 10.0 miles
Clouds Few 6000 ft
Scattered Clouds 12000 ft
Scattered Clouds 20000 ft
Heat Index 87 °F
Dew Point 60 °F
Humidity 40%
Rainfall 0.00 in
Snow Depth Not available.
UV 7 out of 12
Pollen 6.20 out of 12
Air Quality Not available.
Flu Activity Not available.
METAR KICT 181753Z 16017G23KT 10SM FEW060 SCT120 SCT200 28/14 A2999 RMK AO2 SLP139 CB DSNT NE-SE ACC DSNT SW T02780139 10278 20206 50001

More Conditions Fewer Conditions

Pressure 29.94 in
Visibility 10.0 miles
Clouds Few 6000 ft
Scattered Clouds 12000 ft
Scattered Clouds 20000 ft
Heat Index 87 °F
Dew Point 60 °F
Humidity 40%
Rainfall 0.00 in
Snow Depth Not available.
UV 7 out of 12
Pollen 6.20 out of 12
Air Quality Not available.
Flu Activity Not available.
METAR KICT 181753Z 16017G23KT 10SM FEW060 SCT120 SCT200 28/14 A2999 RMK AO2 SLP139 CB DSNT NE-SE ACC DSNT SW T02780139 10278 20206 50001

More Conditions Fewer Conditions

10-Day Weather Forecast

Almanac

Astronomy

Sep. 18, 2014 Rise Set
Actual Time 7:15 AM CDT 7:33 PM CDT
Civil Twilight 6:49 AM CDT 7:59 PM CDT
Nautical Twilight 6:18 AM CDT 8:30 PM CDT
Astronomical Twilight 5:47 AM CDT 9:01 PM CDT
Moon 2:13 AM CDT 4:21 PM CDT
Length of Visible Light 13h 10m
Length of Day
12h 18m
Tomorrow will be 2m 21s shorter.
Waning Crescent, 25% of the Moon is Illuminated
Today
Waning Crescent
Sep 24
New
Oct 1
First Quarter
Oct 8
Full
Oct 15
Last Quarter

Today's Extremes

State Highs State Lows

Community

WunderPhotos

Upload Photos

1,754,417 photos uploaded!

Nearby

Snow Depth

Station Depth Elevation
No new snow has been reported.

Earthquake Activity

City Distance Mag. Time & Date
Medford, Oklahoma 38 miles 3.0 5:28 AM CDT
2014-09-18
Perry, Oklahoma 76 miles 3.9 2:12 AM CDT
2014-09-18
Helena, Oklahoma 70 miles 2.8 4:01 PM CDT
2014-09-17
Perry, Oklahoma 78 miles 2.5 2:57 PM CDT
2014-09-17
Minimum magnitude displayed is 2.5.

Coastal Water Temperatures

Place Temperature
No Stations Reporting

Nearby Weather Stations